sensor_id;sensor_type;location;lat;lon;timestamp;P1;durP1;ratioP1;P2;durP2;ratioP2
4921;SDS011;16625;53.624;10.106;2023-03-29T00:01:33;7.30;;;4.07;;
4921;SDS011;16625;53.624;10.106;2023-03-29T00:04:00;6.50;;;4.40;;
4921;SDS011;16625;53.624;10.106;2023-03-29T00:06:28;12.17;;;5.50;;
4921;SDS011;16625;53.624;10.106;2023-03-29T00:08:58;9.20;;;4.20;;
4921;SDS011;16625;53.624;10.106;2023-03-29T00:11:29;8.47;;;4.67;;
4921;SDS011;16625;53.624;10.106;2023-03-29T00:13:56;7.40;;;4.60;;
4921;SDS011;16625;53.624;10.106;2023-03-29T00:16:23;7.57;;;4.30;;
4921;SDS011;16625;53.624;10.106;2023-03-29T00:18:50;6.97;;;4.60;;
4921;SDS011;16625;53.624;10.106;2023-03-29T00:21:17;16.97;;;4.57;;
4921;SDS011;16625;53.624;10.106;2023-03-29T00:23:44;12.80;;;4.90;;
4921;SDS011;16625;53.624;10.106;2023-03-29T00:26:13;7.70;;;4.60;;
4921;SDS011;16625;53.624;10.106;2023-03-29T00:28:40;7.33;;;3.90;;
4921;SDS011;16625;53.624;10.106;2023-03-29T00:31:08;10.70;;;5.20;;
4921;SDS011;16625;53.624;10.106;2023-03-29T00:33:36;4.53;;;3.83;;
4921;SDS011;16625;53.624;10.106;2023-03-29T00:36:04;6.33;;;4.10;;
4921;SDS011;16625;53.624;10.106;2023-03-29T00:38:32;5.13;;;4.17;;
4921;SDS011;16625;53.624;10.106;2023-03-29T00:41:01;6.53;;;4.00;;
4921;SDS011;16625;53.624;10.106;2023-03-29T00:46:25;5.77;;;3.60;;
4921;SDS011;16625;53.624;10.106;2023-03-29T00:48:56;15.43;;;4.80;;
4921;SDS011;16625;53.624;10.106;2023-03-29T00:51:31;9.93;;;3.67;;
4921;SDS011;16625;53.624;10.106;2023-03-29T00:54:00;5.87;;;4.20;;
4921;SDS011;16625;53.624;10.106;2023-03-29T00:56:30;7.73;;;4.40;;
4921;SDS011;16625;53.624;10.106;2023-03-29T00:59:03;11.17;;;4.43;;
4921;SDS011;16625;53.624;10.106;2023-03-29T01:01:32;16.90;;;4.50;;
4921;SDS011;16625;53.624;10.106;2023-03-29T01:04:06;9.37;;;5.20;;
4921;SDS011;16625;53.624;10.106;2023-03-29T01:06:42;5.13;;;4.23;;
4921;SDS011;16625;53.624;10.106;2023-03-29T01:09:14;12.63;;;5.17;;
4921;SDS011;16625;53.624;10.106;2023-03-29T01:11:44;6.30;;;4.07;;
4921;SDS011;16625;53.624;10.106;2023-03-29T01:14:19;7.03;;;4.10;;
4921;SDS011;16625;53.624;10.106;2023-03-29T01:16:54;15.63;;;5.37;;
4921;SDS011;16625;53.624;10.106;2023-03-29T01:19:23;6.67;;;4.40;;
4921;SDS011;16625;53.624;10.106;2023-03-29T01:21:54;12.40;;;6.40;;
4921;SDS011;16625;53.624;10.106;2023-03-29T01:24:35;9.70;;;3.83;;
4921;SDS011;16625;53.624;10.106;2023-03-29T01:27:10;9.70;;;4.00;;
4921;SDS011;16625;53.624;10.106;2023-03-29T01:29:44;6.60;;;4.43;;
4921;SDS011;16625;53.624;10.106;2023-03-29T01:32:16;9.80;;;4.53;;
4921;SDS011;16625;53.624;10.106;2023-03-29T01:34:47;4.53;;;4.07;;
4921;SDS011;16625;53.624;10.106;2023-03-29T01:37:21;10.73;;;3.70;;
4921;SDS011;16625;53.624;10.106;2023-03-29T01:39:52;8.00;;;4.00;;
4921;SDS011;16625;53.624;10.106;2023-03-29T01:42:33;6.73;;;4.13;;
4921;SDS011;16625;53.624;10.106;2023-03-29T01:45:11;8.17;;;3.57;;
4921;SDS011;16625;53.624;10.106;2023-03-29T01:47:45;7.27;;;3.37;;
4921;SDS011;16625;53.624;10.106;2023-03-29T01:50:20;7.87;;;4.07;;
4921;SDS011;16625;53.624;10.106;2023-03-29T01:52:56;7.40;;;3.80;;
4921;SDS011;16625;53.624;10.106;2023-03-29T01:55:26;13.07;;;4.50;;
4921;SDS011;16625;53.624;10.106;2023-03-29T01:57:58;10.17;;;3.43;;
4921;SDS011;16625;53.624;10.106;2023-03-29T02:00:29;7.53;;;4.27;;
4921;SDS011;16625;53.624;10.106;2023-03-29T02:03:01;5.53;;;3.80;;
4921;SDS011;16625;53.624;10.106;2023-03-29T02:05:33;9.97;;;4.70;;
4921;SDS011;16625;53.624;10.106;2023-03-29T02:08:03;4.27;;;3.83;;
4921;SDS011;16625;53.624;10.106;2023-03-29T02:10:32;12.17;;;6.30;;
4921;SDS011;16625;53.624;10.106;2023-03-29T02:13:01;6.43;;;4.17;;
4921;SDS011;16625;53.624;10.106;2023-03-29T02:15:29;9.27;;;4.47;;
4921;SDS011;16625;53.624;10.106;2023-03-29T02:17:56;6.00;;;4.20;;
4921;SDS011;16625;53.624;10.106;2023-03-29T02:20:23;12.40;;;4.03;;
4921;SDS011;16625;53.624;10.106;2023-03-29T02:22:55;8.13;;;3.73;;
4921;SDS011;16625;53.624;10.106;2023-03-29T02:25:26;7.73;;;4.00;;
4921;SDS011;16625;53.624;10.106;2023-03-29T02:27:54;11.23;;;4.83;;
4921;SDS011;16625;53.624;10.106;2023-03-29T02:30:22;8.13;;;4.53;;
4921;SDS011;16625;53.624;10.106;2023-03-29T02:32:55;6.43;;;3.97;;
4921;SDS011;16625;53.624;10.106;2023-03-29T02:35:26;5.63;;;4.20;;
4921;SDS011;16625;53.624;10.106;2023-03-29T02:37:58;5.50;;;3.50;;
4921;SDS011;16625;53.624;10.106;2023-03-29T02:40:28;10.83;;;4.27;;
4921;SDS011;16625;53.624;10.106;2023-03-29T02:42:59;5.63;;;3.90;;
4921;SDS011;16625;53.624;10.106;2023-03-29T02:45:27;7.53;;;4.20;;
4921;SDS011;16625;53.624;10.106;2023-03-29T02:47:56;4.40;;;3.17;;
4921;SDS011;16625;53.624;10.106;2023-03-29T02:50:27;8.97;;;4.13;;
4921;SDS011;16625;53.624;10.106;2023-03-29T02:53:00;7.80;;;4.33;;
4921;SDS011;16625;53.624;10.106;2023-03-29T02:55:32;8.43;;;4.00;;
4921;SDS011;16625;53.624;10.106;2023-03-29T02:58:00;8.27;;;3.70;;
4921;SDS011;16625;53.624;10.106;2023-03-29T03:00:32;7.10;;;4.90;;
4921;SDS011;16625;53.624;10.106;2023-03-29T03:03:02;11.23;;;4.40;;
4921;SDS011;16625;53.624;10.106;2023-03-29T03:05:34;17.13;;;4.10;;
4921;SDS011;16625;53.624;10.106;2023-03-29T03:08:01;13.47;;;3.87;;
4921;SDS011;16625;53.624;10.106;2023-03-29T03:10:28;10.30;;;3.40;;
4921;SDS011;16625;53.624;10.106;2023-03-29T03:12:57;8.70;;;3.40;;
4921;SDS011;16625;53.624;10.106;2023-03-29T03:15:24;4.17;;;2.80;;
4921;SDS011;16625;53.624;10.106;2023-03-29T03:17:51;4.50;;;3.57;;
4921;SDS011;16625;53.624;10.106;2023-03-29T03:20:19;4.70;;;3.07;;
4921;SDS011;16625;53.624;10.106;2023-03-29T03:22:47;6.73;;;2.90;;
4921;SDS011;16625;53.624;10.106;2023-03-29T03:25:14;8.00;;;3.13;;
4921;SDS011;16625;53.624;10.106;2023-03-29T03:27:43;14.47;;;4.37;;
4921;SDS011;16625;53.624;10.106;2023-03-29T03:30:10;11.10;;;3.40;;
4921;SDS011;16625;53.624;10.106;2023-03-29T03:32:38;8.37;;;3.90;;
4921;SDS011;16625;53.624;10.106;2023-03-29T03:35:05;5.83;;;3.17;;
4921;SDS011;16625;53.624;10.106;2023-03-29T03:37:35;11.70;;;4.17;;
4921;SDS011;16625;53.624;10.106;2023-03-29T03:40:03;6.23;;;2.77;;
4921;SDS011;16625;53.624;10.106;2023-03-29T03:42:35;10.93;;;3.37;;
4921;SDS011;16625;53.624;10.106;2023-03-29T03:45:02;8.10;;;3.87;;
4921;SDS011;16625;53.624;10.106;2023-03-29T03:47:30;10.10;;;4.67;;
4921;SDS011;16625;53.624;10.106;2023-03-29T03:49:57;8.37;;;3.37;;
4921;SDS011;16625;53.624;10.106;2023-03-29T03:52:24;13.70;;;3.97;;
4921;SDS011;16625;53.624;10.106;2023-03-29T03:54:53;8.93;;;3.73;;
4921;SDS011;16625;53.624;10.106;2023-03-29T03:57:20;7.40;;;3.93;;
4921;SDS011;16625;53.624;10.106;2023-03-29T03:59:48;6.00;;;3.43;;
4921;SDS011;16625;53.624;10.106;2023-03-29T04:02:15;10.97;;;4.03;;
4921;SDS011;16625;53.624;10.106;2023-03-29T04:04:44;10.00;;;3.47;;
4921;SDS011;16625;53.624;10.106;2023-03-29T04:07:11;8.23;;;3.43;;
4921;SDS011;16625;53.624;10.106;2023-03-29T04:09:41;5.13;;;3.43;;
4921;SDS011;16625;53.624;10.106;2023-03-29T04:12:10;10.53;;;4.67;;
4921;SDS011;16625;53.624;10.106;2023-03-29T04:14:37;9.50;;;4.13;;
4921;SDS011;16625;53.624;10.106;2023-03-29T04:17:04;4.90;;;3.90;;
4921;SDS011;16625;53.624;10.106;2023-03-29T04:19:31;5.57;;;4.00;;
4921;SDS011;16625;53.624;10.106;2023-03-29T04:21:58;10.53;;;3.93;;
4921;SDS011;16625;53.624;10.106;2023-03-29T04:24:25;7.83;;;3.80;;
4921;SDS011;16625;53.624;10.106;2023-03-29T04:26:52;4.03;;;3.60;;
4921;SDS011;16625;53.624;10.106;2023-03-29T04:29:21;6.43;;;4.00;;
4921;SDS011;16625;53.624;10.106;2023-03-29T04:31:48;15.43;;;4.53;;
4921;SDS011;16625;53.624;10.106;2023-03-29T04:34:14;9.60;;;3.87;;
4921;SDS011;16625;53.624;10.106;2023-03-29T04:36:41;10.87;;;4.80;;
4921;SDS011;16625;53.624;10.106;2023-03-29T04:39:08;5.03;;;3.90;;
4921;SDS011;16625;53.624;10.106;2023-03-29T04:41:36;7.30;;;4.27;;
4921;SDS011;16625;53.624;10.106;2023-03-29T04:44:03;6.10;;;3.53;;
4921;SDS011;16625;53.624;10.106;2023-03-29T04:46:32;8.63;;;4.30;;
4921;SDS011;16625;53.624;10.106;2023-03-29T04:48:59;15.00;;;4.30;;
4921;SDS011;16625;53.624;10.106;2023-03-29T04:51:26;4.77;;;3.57;;
4921;SDS011;16625;53.624;10.106;2023-03-29T04:53:53;5.50;;;4.17;;
4921;SDS011;16625;53.624;10.106;2023-03-29T04:56:20;10.57;;;4.10;;
4921;SDS011;16625;53.624;10.106;2023-03-29T04:58:48;9.13;;;4.43;;
4921;SDS011;16625;53.624;10.106;2023-03-29T05:01:15;6.70;;;4.67;;
4921;SDS011;16625;53.624;10.106;2023-03-29T05:03:44;5.97;;;4.40;;
4921;SDS011;16625;53.624;10.106;2023-03-29T05:06:11;7.57;;;3.90;;
4921;SDS011;16625;53.624;10.106;2023-03-29T05:08:38;7.47;;;4.37;;
4921;SDS011;16625;53.624;10.106;2023-03-29T05:11:05;9.70;;;4.43;;
4921;SDS011;16625;53.624;10.106;2023-03-29T05:13:33;9.10;;;4.60;;
4921;SDS011;16625;53.624;10.106;2023-03-29T05:16:00;6.40;;;4.20;;
4921;SDS011;16625;53.624;10.106;2023-03-29T05:18:28;7.07;;;5.00;;
4921;SDS011;16625;53.624;10.106;2023-03-29T05:20:57;5.33;;;3.40;;
4921;SDS011;16625;53.624;10.106;2023-03-29T05:23:25;9.13;;;4.33;;
4921;SDS011;16625;53.624;10.106;2023-03-29T05:25:53;10.30;;;5.07;;
4921;SDS011;16625;53.624;10.106;2023-03-29T05:28:20;9.73;;;4.13;;
4921;SDS011;16625;53.624;10.106;2023-03-29T05:30:57;11.73;;;4.77;;
4921;SDS011;16625;53.624;10.106;2023-03-29T05:33:24;7.80;;;4.73;;
4921;SDS011;16625;53.624;10.106;2023-03-29T05:35:58;7.43;;;5.00;;
4921;SDS011;16625;53.624;10.106;2023-03-29T05:38:25;8.53;;;5.20;;
4921;SDS011;16625;53.624;10.106;2023-03-29T05:40:53;9.37;;;5.40;;
4921;SDS011;16625;53.624;10.106;2023-03-29T05:43:21;13.03;;;5.37;;
4921;SDS011;16625;53.624;10.106;2023-03-29T05:45:49;19.53;;;6.27;;
4921;SDS011;16625;53.624;10.106;2023-03-29T05:48:18;6.53;;;5.13;;
4921;SDS011;16625;53.624;10.106;2023-03-29T05:50:45;14.50;;;6.00;;
4921;SDS011;16625;53.624;10.106;2023-03-29T05:53:15;13.40;;;5.53;;
4921;SDS011;16625;53.624;10.106;2023-03-29T05:55:41;11.07;;;4.97;;
4921;SDS011;16625;53.624;10.106;2023-03-29T05:58:10;6.70;;;4.97;;
4921;SDS011;16625;53.624;10.106;2023-03-29T06:00:38;10.60;;;6.13;;
4921;SDS011;16625;53.624;10.106;2023-03-29T06:03:06;10.80;;;6.37;;
4921;SDS011;16625;53.624;10.106;2023-03-29T06:05:41;11.77;;;5.47;;
4921;SDS011;16625;53.624;10.106;2023-03-29T06:08:08;9.57;;;5.80;;
4921;SDS011;16625;53.624;10.106;2023-03-29T06:10:37;13.67;;;6.30;;
4921;SDS011;16625;53.624;10.106;2023-03-29T06:13:04;10.73;;;5.80;;
4921;SDS011;16625;53.624;10.106;2023-03-29T06:15:31;9.03;;;6.00;;
4921;SDS011;16625;53.624;10.106;2023-03-29T06:17:59;11.80;;;6.93;;
4921;SDS011;16625;53.624;10.106;2023-03-29T06:20:26;13.23;;;7.10;;
4921;SDS011;16625;53.624;10.106;2023-03-29T06:22:53;17.00;;;6.77;;
4921;SDS011;16625;53.624;10.106;2023-03-29T06:25:20;13.43;;;5.97;;
4921;SDS011;16625;53.624;10.106;2023-03-29T06:27:49;14.23;;;7.17;;
4921;SDS011;16625;53.624;10.106;2023-03-29T06:30:16;12.23;;;6.70;;
4921;SDS011;16625;53.624;10.106;2023-03-29T06:32:43;15.70;;;6.70;;
4921;SDS011;16625;53.624;10.106;2023-03-29T06:35:10;16.37;;;6.97;;
4921;SDS011;16625;53.624;10.106;2023-03-29T06:37:38;14.80;;;6.90;;
4921;SDS011;16625;53.624;10.106;2023-03-29T06:40:13;13.40;;;6.80;;
4921;SDS011;16625;53.624;10.106;2023-03-29T06:42:43;33.73;;;6.83;;
4921;SDS011;16625;53.624;10.106;2023-03-29T06:45:11;12.83;;;7.50;;
4921;SDS011;16625;53.624;10.106;2023-03-29T06:47:40;11.07;;;6.50;;
4921;SDS011;16625;53.624;10.106;2023-03-29T06:50:07;8.97;;;6.57;;
4921;SDS011;16625;53.624;10.106;2023-03-29T06:52:35;17.53;;;7.67;;
4921;SDS011;16625;53.624;10.106;2023-03-29T06:55:02;13.53;;;7.83;;
4921;SDS011;16625;53.624;10.106;2023-03-29T06:57:31;10.20;;;6.77;;
4921;SDS011;16625;53.624;10.106;2023-03-29T06:59:59;13.53;;;7.27;;
4921;SDS011;16625;53.624;10.106;2023-03-29T07:02:27;13.27;;;6.93;;
4921;SDS011;16625;53.624;10.106;2023-03-29T07:04:54;11.20;;;7.10;;
4921;SDS011;16625;53.624;10.106;2023-03-29T07:07:27;7.97;;;6.07;;
4921;SDS011;16625;53.624;10.106;2023-03-29T07:10:08;9.57;;;6.20;;
4921;SDS011;16625;53.624;10.106;2023-03-29T07:12:36;11.60;;;6.60;;
4921;SDS011;16625;53.624;10.106;2023-03-29T07:15:05;9.80;;;6.17;;
4921;SDS011;16625;53.624;10.106;2023-03-29T07:17:34;11.53;;;6.93;;
4921;SDS011;16625;53.624;10.106;2023-03-29T07:20:02;14.40;;;7.80;;
4921;SDS011;16625;53.624;10.106;2023-03-29T07:22:32;13.13;;;6.30;;
4921;SDS011;16625;53.624;10.106;2023-03-29T07:24:59;11.90;;;7.10;;
4921;SDS011;16625;53.624;10.106;2023-03-29T07:27:26;11.13;;;6.53;;
4921;SDS011;16625;53.624;10.106;2023-03-29T07:29:53;16.37;;;6.90;;
4921;SDS011;16625;53.624;10.106;2023-03-29T07:32:21;11.13;;;6.10;;
4921;SDS011;16625;53.624;10.106;2023-03-29T07:34:52;12.50;;;8.70;;
4921;SDS011;16625;53.624;10.106;2023-03-29T07:37:19;10.43;;;6.17;;
4921;SDS011;16625;53.624;10.106;2023-03-29T07:39:46;12.27;;;6.63;;
4921;SDS011;16625;53.624;10.106;2023-03-29T07:42:13;9.87;;;5.83;;
4921;SDS011;16625;53.624;10.106;2023-03-29T07:44:40;11.30;;;6.17;;
4921;SDS011;16625;53.624;10.106;2023-03-29T07:47:07;11.57;;;5.70;;
4921;SDS011;16625;53.624;10.106;2023-03-29T07:49:34;7.30;;;5.50;;
4921;SDS011;16625;53.624;10.106;2023-03-29T07:52:03;15.40;;;5.70;;
4921;SDS011;16625;53.624;10.106;2023-03-29T07:54:33;7.33;;;5.30;;
4921;SDS011;16625;53.624;10.106;2023-03-29T07:57:00;11.87;;;6.33;;
4921;SDS011;16625;53.624;10.106;2023-03-29T07:59:27;11.90;;;5.23;;
4921;SDS011;16625;53.624;10.106;2023-03-29T08:01:54;8.00;;;6.30;;
4921;SDS011;16625;53.624;10.106;2023-03-29T08:04:22;8.27;;;5.40;;
4921;SDS011;16625;53.624;10.106;2023-03-29T08:06:49;8.00;;;5.57;;
4921;SDS011;16625;53.624;10.106;2023-03-29T08:09:17;11.87;;;6.33;;
4921;SDS011;16625;53.624;10.106;2023-03-29T08:11:45;8.33;;;5.70;;
4921;SDS011;16625;53.624;10.106;2023-03-29T08:14:12;11.27;;;5.90;;
4921;SDS011;16625;53.624;10.106;2023-03-29T08:16:39;8.13;;;4.80;;
4921;SDS011;16625;53.624;10.106;2023-03-29T08:19:06;9.90;;;5.93;;
4921;SDS011;16625;53.624;10.106;2023-03-29T08:21:33;10.27;;;5.53;;
4921;SDS011;16625;53.624;10.106;2023-03-29T08:24:00;20.53;;;5.20;;
4921;SDS011;16625;53.624;10.106;2023-03-29T08:26:28;8.50;;;6.20;;
4921;SDS011;16625;53.624;10.106;2023-03-29T08:28:55;7.40;;;5.03;;
4921;SDS011;16625;53.624;10.106;2023-03-29T08:31:22;6.93;;;4.93;;
4921;SDS011;16625;53.624;10.106;2023-03-29T08:33:50;8.10;;;5.30;;
4921;SDS011;16625;53.624;10.106;2023-03-29T08:36:17;9.63;;;5.57;;
4921;SDS011;16625;53.624;10.106;2023-03-29T08:38:44;10.43;;;5.40;;
4921;SDS011;16625;53.624;10.106;2023-03-29T08:41:16;8.00;;;5.87;;
4921;SDS011;16625;53.624;10.106;2023-03-29T08:43:54;13.43;;;6.60;;
4921;SDS011;16625;53.624;10.106;2023-03-29T08:46:32;10.13;;;5.57;;
4921;SDS011;16625;53.624;10.106;2023-03-29T08:49:06;8.20;;;5.30;;
4921;SDS011;16625;53.624;10.106;2023-03-29T08:51:35;16.43;;;5.67;;
4921;SDS011;16625;53.624;10.106;2023-03-29T08:54:06;14.20;;;6.00;;
4921;SDS011;16625;53.624;10.106;2023-03-29T08:56:38;6.20;;;4.70;;
4921;SDS011;16625;53.624;10.106;2023-03-29T08:59:14;8.63;;;5.60;;
4921;SDS011;16625;53.624;10.106;2023-03-29T09:01:44;10.23;;;5.87;;
4921;SDS011;16625;53.624;10.106;2023-03-29T09:04:15;8.47;;;4.93;;
4921;SDS011;16625;53.624;10.106;2023-03-29T09:06:46;12.03;;;5.67;;
4921;SDS011;16625;53.624;10.106;2023-03-29T09:09:14;13.90;;;5.60;;
4921;SDS011;16625;53.624;10.106;2023-03-29T09:11:48;11.13;;;5.87;;
4921;SDS011;16625;53.624;10.106;2023-03-29T09:14:33;6.60;;;5.23;;
4921;SDS011;16625;53.624;10.106;2023-03-29T09:17:15;9.80;;;5.60;;
4921;SDS011;16625;53.624;10.106;2023-03-29T09:19:58;6.37;;;4.90;;
4921;SDS011;16625;53.624;10.106;2023-03-29T09:22:33;7.80;;;5.13;;
4921;SDS011;16625;53.624;10.106;2023-03-29T09:25:09;12.93;;;6.57;;
4921;SDS011;16625;53.624;10.106;2023-03-29T09:27:43;11.23;;;5.13;;
4921;SDS011;16625;53.624;10.106;2023-03-29T09:30:16;9.73;;;5.20;;
4921;SDS011;16625;53.624;10.106;2023-03-29T09:32:50;9.30;;;6.27;;
4921;SDS011;16625;53.624;10.106;2023-03-29T09:35:21;8.93;;;5.80;;
4921;SDS011;16625;53.624;10.106;2023-03-29T09:37:51;12.27;;;6.07;;
4921;SDS011;16625;53.624;10.106;2023-03-29T09:40:21;9.30;;;5.70;;
4921;SDS011;16625;53.624;10.106;2023-03-29T09:42:53;11.67;;;6.97;;
4921;SDS011;16625;53.624;10.106;2023-03-29T09:45:30;8.80;;;5.87;;
4921;SDS011;16625;53.624;10.106;2023-03-29T09:47:58;7.03;;;4.97;;
4921;SDS011;16625;53.624;10.106;2023-03-29T09:50:35;9.80;;;5.67;;
4921;SDS011;16625;53.624;10.106;2023-03-29T09:53:05;9.07;;;4.93;;
4921;SDS011;16625;53.624;10.106;2023-03-29T09:55:33;7.60;;;4.60;;
4921;SDS011;16625;53.624;10.106;2023-03-29T09:58:06;5.07;;;3.60;;
4921;SDS011;16625;53.624;10.106;2023-03-29T10:00:40;6.90;;;5.50;;
4921;SDS011;16625;53.624;10.106;2023-03-29T10:03:15;13.87;;;5.40;;
4921;SDS011;16625;53.624;10.106;2023-03-29T10:05:45;8.83;;;4.70;;
4921;SDS011;16625;53.624;10.106;2023-03-29T10:08:16;9.97;;;4.47;;
4921;SDS011;16625;53.624;10.106;2023-03-29T10:10:47;7.80;;;4.67;;
4921;SDS011;16625;53.624;10.106;2023-03-29T10:13:26;8.43;;;4.83;;
4921;SDS011;16625;53.624;10.106;2023-03-29T10:16:03;10.67;;;5.20;;
4921;SDS011;16625;53.624;10.106;2023-03-29T10:18:37;9.70;;;5.33;;
4921;SDS011;16625;53.624;10.106;2023-03-29T10:21:45;7.07;;;4.80;;
4921;SDS011;16625;53.624;10.106;2023-03-29T10:24:17;17.40;;;5.07;;
4921;SDS011;16625;53.624;10.106;2023-03-29T10:26:46;8.03;;;4.40;;
4921;SDS011;16625;53.624;10.106;2023-03-29T10:29:21;9.83;;;4.63;;
4921;SDS011;16625;53.624;10.106;2023-03-29T10:31:54;7.60;;;5.00;;
4921;SDS011;16625;53.624;10.106;2023-03-29T10:34:23;13.57;;;5.17;;
4921;SDS011;16625;53.624;10.106;2023-03-29T10:36:52;7.70;;;5.40;;
4921;SDS011;16625;53.624;10.106;2023-03-29T10:39:23;8.30;;;4.20;;
4921;SDS011;16625;53.624;10.106;2023-03-29T10:41:57;9.37;;;5.23;;
4921;SDS011;16625;53.624;10.106;2023-03-29T10:44:26;10.67;;;4.90;;
4921;SDS011;16625;53.624;10.106;2023-03-29T10:47:07;7.73;;;5.20;;
4921;SDS011;16625;53.624;10.106;2023-03-29T10:49:39;15.70;;;5.83;;
4921;SDS011;16625;53.624;10.106;2023-03-29T10:52:11;9.73;;;5.53;;
4921;SDS011;16625;53.624;10.106;2023-03-29T10:54:39;7.53;;;5.10;;
4921;SDS011;16625;53.624;10.106;2023-03-29T10:57:07;11.30;;;5.73;;
4921;SDS011;16625;53.624;10.106;2023-03-29T10:59:41;8.30;;;5.50;;
4921;SDS011;16625;53.624;10.106;2023-03-29T11:02:25;12.23;;;5.30;;
4921;SDS011;16625;53.624;10.106;2023-03-29T11:05:16;10.83;;;5.63;;
4921;SDS011;16625;53.624;10.106;2023-03-29T11:07:54;8.93;;;6.00;;
4921;SDS011;16625;53.624;10.106;2023-03-29T11:10:45;10.00;;;5.30;;
4921;SDS011;16625;53.624;10.106;2023-03-29T11:13:22;7.93;;;4.90;;
4921;SDS011;16625;53.624;10.106;2023-03-29T11:15:57;8.10;;;5.93;;
4921;SDS011;16625;53.624;10.106;2023-03-29T11:18:40;10.20;;;5.03;;
4921;SDS011;16625;53.624;10.106;2023-03-29T11:21:18;10.70;;;5.70;;
4921;SDS011;16625;53.624;10.106;2023-03-29T11:23:55;8.00;;;5.67;;
4921;SDS011;16625;53.624;10.106;2023-03-29T11:26:34;9.83;;;5.50;;
4921;SDS011;16625;53.624;10.106;2023-03-29T11:29:13;12.83;;;6.30;;
4921;SDS011;16625;53.624;10.106;2023-03-29T11:31:51;9.23;;;5.70;;
4921;SDS011;16625;53.624;10.106;2023-03-29T11:34:37;14.23;;;5.93;;
4921;SDS011;16625;53.624;10.106;2023-03-29T11:37:19;8.47;;;5.27;;
4921;SDS011;16625;53.624;10.106;2023-03-29T11:40:03;10.13;;;6.53;;
4921;SDS011;16625;53.624;10.106;2023-03-29T11:42:51;12.30;;;6.50;;
4921;SDS011;16625;53.624;10.106;2023-03-29T11:45:22;16.27;;;5.87;;
4921;SDS011;16625;53.624;10.106;2023-03-29T11:47:54;9.13;;;6.27;;
4921;SDS011;16625;53.624;10.106;2023-03-29T11:50:26;12.20;;;5.73;;
4921;SDS011;16625;53.624;10.106;2023-03-29T11:52:57;8.93;;;5.90;;
4921;SDS011;16625;53.624;10.106;2023-03-29T11:55:29;9.17;;;6.57;;
4921;SDS011;16625;53.624;10.106;2023-03-29T11:58:02;9.77;;;6.00;;
4921;SDS011;16625;53.624;10.106;2023-03-29T12:00:36;11.53;;;5.83;;
4921;SDS011;16625;53.624;10.106;2023-03-29T12:03:09;10.27;;;5.73;;
4921;SDS011;16625;53.624;10.106;2023-03-29T12:05:43;11.93;;;6.30;;
4921;SDS011;16625;53.624;10.106;2023-03-29T12:08:14;9.13;;;6.00;;
4921;SDS011;16625;53.624;10.106;2023-03-29T12:10:47;8.60;;;5.87;;
4921;SDS011;16625;53.624;10.106;2023-03-29T12:13:20;9.63;;;6.97;;
4921;SDS011;16625;53.624;10.106;2023-03-29T12:15:55;10.90;;;6.73;;
4921;SDS011;16625;53.624;10.106;2023-03-29T12:18:35;12.77;;;6.57;;
4921;SDS011;16625;53.624;10.106;2023-03-29T12:21:10;14.63;;;6.20;;
4921;SDS011;16625;53.624;10.106;2023-03-29T12:23:39;16.73;;;6.90;;
4921;SDS011;16625;53.624;10.106;2023-03-29T12:26:13;11.53;;;7.30;;
4921;SDS011;16625;53.624;10.106;2023-03-29T12:29:01;10.30;;;6.20;;
4921;SDS011;16625;53.624;10.106;2023-03-29T12:31:45;10.60;;;6.40;;
4921;SDS011;16625;53.624;10.106;2023-03-29T12:34:27;10.20;;;6.47;;
4921;SDS011;16625;53.624;10.106;2023-03-29T12:37:18;10.33;;;6.67;;
4921;SDS011;16625;53.624;10.106;2023-03-29T12:40:01;8.23;;;6.90;;
4921;SDS011;16625;53.624;10.106;2023-03-29T12:42:43;10.67;;;7.67;;
4921;SDS011;16625;53.624;10.106;2023-03-29T12:45:13;17.70;;;6.80;;
4921;SDS011;16625;53.624;10.106;2023-03-29T12:47:44;10.93;;;7.57;;
4921;SDS011;16625;53.624;10.106;2023-03-29T12:50:15;14.57;;;7.80;;
4921;SDS011;16625;53.624;10.106;2023-03-29T12:52:59;12.40;;;7.73;;
4921;SDS011;16625;53.624;10.106;2023-03-29T12:55:30;10.33;;;6.70;;
4921;SDS011;16625;53.624;10.106;2023-03-29T12:58:02;15.00;;;7.90;;
4921;SDS011;16625;53.624;10.106;2023-03-29T13:00:42;12.37;;;8.20;;
4921;SDS011;16625;53.624;10.106;2023-03-29T13:03:33;16.50;;;9.60;;
4921;SDS011;16625;53.624;10.106;2023-03-29T13:06:09;13.27;;;8.40;;
4921;SDS011;16625;53.624;10.106;2023-03-29T13:08:39;13.37;;;8.53;;
4921;SDS011;16625;53.624;10.106;2023-03-29T13:11:10;14.20;;;8.33;;
4921;SDS011;16625;53.624;10.106;2023-03-29T13:14:12;11.37;;;8.27;;
4921;SDS011;16625;53.624;10.106;2023-03-29T13:16:44;11.80;;;7.97;;
4921;SDS011;16625;53.624;10.106;2023-03-29T13:19:18;13.93;;;8.03;;
4921;SDS011;16625;53.624;10.106;2023-03-29T13:21:57;10.80;;;9.00;;
4921;SDS011;16625;53.624;10.106;2023-03-29T13:24:43;12.33;;;7.70;;
4921;SDS011;16625;53.624;10.106;2023-03-29T13:27:21;11.80;;;8.30;;
4921;SDS011;16625;53.624;10.106;2023-03-29T13:29:57;10.87;;;7.57;;
4921;SDS011;16625;53.624;10.106;2023-03-29T13:35:31;12.67;;;8.00;;
4921;SDS011;16625;53.624;10.106;2023-03-29T13:38:13;11.23;;;7.63;;
4921;SDS011;16625;53.624;10.106;2023-03-29T13:40:58;16.80;;;10.07;;
4921;SDS011;16625;53.624;10.106;2023-03-29T13:43:32;36.77;;;19.83;;
4921;SDS011;16625;53.624;10.106;2023-03-29T13:46:20;23.03;;;13.40;;
4921;SDS011;16625;53.624;10.106;2023-03-29T13:49:05;26.43;;;14.73;;
4921;SDS011;16625;53.624;10.106;2023-03-29T13:51:40;10.47;;;8.03;;
4921;SDS011;16625;53.624;10.106;2023-03-29T13:54:12;14.97;;;8.17;;
4921;SDS011;16625;53.624;10.106;2023-03-29T13:56:58;15.93;;;8.37;;
4921;SDS011;16625;53.624;10.106;2023-03-29T13:59:35;9.63;;;8.00;;
4921;SDS011;16625;53.624;10.106;2023-03-29T14:02:11;9.57;;;7.60;;
4921;SDS011;16625;53.624;10.106;2023-03-29T14:05:00;11.43;;;7.20;;
4921;SDS011;16625;53.624;10.106;2023-03-29T14:07:32;9.93;;;6.80;;
4921;SDS011;16625;53.624;10.106;2023-03-29T14:10:18;10.40;;;7.90;;
4921;SDS011;16625;53.624;10.106;2023-03-29T14:12:58;14.93;;;7.40;;
4921;SDS011;16625;53.624;10.106;2023-03-29T14:15:35;10.57;;;7.00;;
4921;SDS011;16625;53.624;10.106;2023-03-29T14:18:13;14.33;;;8.33;;
4921;SDS011;16625;53.624;10.106;2023-03-29T14:20:45;12.07;;;8.67;;
4921;SDS011;16625;53.624;10.106;2023-03-29T14:23:26;11.47;;;6.33;;
4921;SDS011;16625;53.624;10.106;2023-03-29T14:26:02;11.00;;;7.33;;
4921;SDS011;16625;53.624;10.106;2023-03-29T14:28:34;11.47;;;7.70;;
4921;SDS011;16625;53.624;10.106;2023-03-29T14:31:02;9.50;;;6.87;;
4921;SDS011;16625;53.624;10.106;2023-03-29T14:33:32;9.73;;;7.93;;
4921;SDS011;16625;53.624;10.106;2023-03-29T14:36:02;9.83;;;6.57;;
4921;SDS011;16625;53.624;10.106;2023-03-29T14:38:38;9.67;;;6.47;;
4921;SDS011;16625;53.624;10.106;2023-03-29T14:41:09;10.40;;;7.30;;
4921;SDS011;16625;53.624;10.106;2023-03-29T14:43:40;8.43;;;6.33;;
4921;SDS011;16625;53.624;10.106;2023-03-29T14:46:10;12.13;;;8.20;;
4921;SDS011;16625;53.624;10.106;2023-03-29T14:48:41;11.47;;;7.33;;
4921;SDS011;16625;53.624;10.106;2023-03-29T14:51:11;10.47;;;8.07;;
4921;SDS011;16625;53.624;10.106;2023-03-29T14:53:39;11.63;;;6.50;;
4921;SDS011;16625;53.624;10.106;2023-03-29T14:56:10;21.00;;;8.10;;
4921;SDS011;16625;53.624;10.106;2023-03-29T14:58:51;11.77;;;8.00;;
4921;SDS011;16625;53.624;10.106;2023-03-29T15:01:21;8.13;;;6.60;;
4921;SDS011;16625;53.624;10.106;2023-03-29T15:03:51;10.63;;;6.53;;
4921;SDS011;16625;53.624;10.106;2023-03-29T15:06:20;10.00;;;7.57;;
4921;SDS011;16625;53.624;10.106;2023-03-29T15:08:52;11.50;;;8.60;;
4921;SDS011;16625;53.624;10.106;2023-03-29T15:11:25;17.93;;;9.60;;
4921;SDS011;16625;53.624;10.106;2023-03-29T15:13:58;17.80;;;8.70;;